Time;durP1;ratioP1;P1;durP2;ratioP2;P2;SDS_P1;SDS_P2;PMS_P1;PMS_P2;Temp;Humidity;BMP_temperature;BMP_pressure;BME280_temperature;BME280_humidity;BME280_pressure;Samples;Min_cycle;Max_cycle;Signal;HPM_P1;HPM_P2
2023/02/26 00:00:59;;;;;;;15.57;4.20;;;5.20;99.90;;;4.13;92.97;101122.25;4170147;28;20014;-78
2023/02/26 00:03:00;;;;;;;8.90;3.05;;;5.20;99.90;;;4.01;92.75;101123.94;4170048;28;20055;-77
2023/02/26 00:05:03;;;;;;;6.78;2.75;;;5.10;99.90;;;3.96;93.17;101120.81;4168797;28;20025;-77
2023/02/26 00:07:05;;;;;;;11.13;2.60;;;5.00;99.90;;;3.86;93.83;101119.75;4172205;28;20025;-77
2023/02/26 00:09:06;;;;;;;13.23;3.30;;;4.90;99.90;;;3.81;93.85;101124.44;4168732;28;20021;-77
2023/02/26 00:11:09;;;;;;;10.35;2.58;;;4.80;99.90;;;3.73;94.61;101126.75;4168889;28;20536;-77
2023/02/26 00:13:11;;;;;;;12.52;2.70;;;4.70;99.90;;;3.69;94.84;101120.06;4167738;28;20022;-77
2023/02/26 00:15:13;;;;;;;7.22;3.20;;;4.70;99.90;;;3.68;95.04;101137.47;4168585;28;20117;-78
2023/02/26 00:17:28;;;;;;;12.77;3.13;;;4.70;99.90;;;3.71;95.38;101136.44;4176751;28;20108;-78
2023/02/26 00:19:29;;;;;;;11.98;2.60;;;4.60;99.90;;;3.69;95.50;101138.31;4173963;28;20033;-78
2023/02/26 00:21:32;;;;;;;10.48;3.10;;;4.60;99.90;;;3.70;95.40;101138.19;4168572;28;20448;-78
2023/02/26 00:23:34;;;;;;;13.15;3.15;;;4.60;99.90;;;3.61;95.79;101127.56;4168790;28;20128;-78
2023/02/26 00:25:34;;;;;;;12.10;3.08;;;4.60;99.90;;;3.59;95.28;101138.09;4169592;28;20428;-78
2023/02/26 00:27:36;;;;;;;8.63;3.10;;;4.60;99.90;;;3.60;96.10;101138.94;4179221;28;20064;-78
2023/02/26 00:29:38;;;;;;;10.25;2.58;;;4.60;99.90;;;3.55;96.25;101139.25;4152827;28;20032;-78
2023/02/26 00:31:39;;;;;;;7.68;3.08;;;4.50;99.90;;;3.50;96.07;101135.25;4170126;28;20083;-78
2023/02/26 00:33:41;;;;;;;11.13;3.47;;;4.50;99.90;;;3.58;96.33;101140.81;4168421;28;20116;-78
2023/02/26 00:35:42;;;;;;;8.30;2.88;;;4.50;99.90;;;3.56;96.36;101142.66;4169672;28;20079;-78
2023/02/26 00:38:05;;;;;;;7.72;2.53;;;4.50;99.90;;;3.56;95.47;101143.50;4178285;28;20021;-78
2023/02/26 00:40:15;;;;;;;10.93;2.30;;;4.50;99.90;;;3.50;96.27;101148.28;4168672;28;20049;-78
2023/02/26 00:42:17;;;;;;;8.73;2.90;;;4.40;99.90;;;3.47;95.70;101138.91;4184733;28;20454;-78
2023/02/26 00:44:18;;;;;;;11.65;2.60;;;4.50;99.90;;;3.39;96.07;101135.97;4167950;28;20938;-78
2023/02/26 00:47:05;;;;;;;7.65;2.75;;;4.40;99.90;;;3.28;96.88;101147.13;4169601;28;20029;-78
2023/02/26 00:49:38;;;;;;;12.15;2.72;;;4.30;99.90;;;3.21;97.08;101153.66;4169324;28;20037;-78
2023/02/26 00:51:57;;;;;;;8.48;3.33;;;4.20;99.90;;;3.19;97.50;101160.75;4169540;28;20037;-78
2023/02/26 00:54:24;;;;;;;12.23;3.60;;;4.10;99.90;;;3.12;97.77;101158.59;4187320;28;20420;-78
2023/02/26 00:56:25;;;;;;;16.92;3.40;;;4.10;99.90;;;3.07;98.01;101161.53;4181045;28;20022;-78
2023/02/26 00:58:25;;;;;;;14.32;4.15;;;4.10;99.90;;;3.08;97.81;101168.38;4168083;28;20095;-78
2023/02/26 01:00:26;;;;;;;11.57;2.38;;;4.00;99.90;;;3.11;97.96;101155.16;4167896;28;20030;-78
2023/02/26 01:02:28;;;;;;;11.00;3.03;;;4.10;99.90;;;3.04;97.76;101156.50;4169245;28;20043;-78
2023/02/26 01:04:29;;;;;;;11.38;2.92;;;4.10;99.90;;;3.04;97.82;101171.31;4168037;28;20405;-78
2023/02/26 01:06:34;;;;;;;10.50;3.80;;;4.00;99.90;;;3.01;98.15;101171.50;4174658;28;20558;-78
2023/02/26 01:08:46;;;;;;;11.13;3.35;;;3.90;99.90;;;2.96;98.24;101163.94;4169239;28;20025;-78
2023/02/26 01:10:47;;;;;;;14.95;2.58;;;4.00;99.90;;;2.86;98.41;101170.69;4168171;28;20025;-78
2023/02/26 01:12:49;;;;;;;8.43;2.88;;;3.90;99.90;;;2.78;99.59;101171.16;4151427;28;20069;-78
2023/02/26 01:14:51;;;;;;;11.52;3.13;;;3.90;99.90;;;2.81;99.75;101174.53;4167498;28;20026;-78
2023/02/26 01:17:18;;;;;;;7.68;3.08;;;3.80;99.90;;;2.80;99.39;101171.06;4159550;28;20505;-78
2023/02/26 01:19:36;;;;;;;8.48;2.65;;;3.70;99.90;;;2.76;100.00;101174.78;4173413;28;20022;-78
2023/02/26 01:21:46;;;;;;;8.68;3.10;;;3.80;99.90;;;2.62;99.88;101167.84;4173636;28;20501;-78
2023/02/26 01:23:50;;;;;;;12.07;2.95;;;3.70;99.90;;;2.72;99.71;101186.31;4176214;28;20514;-78
2023/02/26 01:26:05;;;;;;;10.10;2.97;;;3.70;99.90;;;2.70;100.00;101186.44;4167561;28;20045;-78
2023/02/26 01:28:07;;;;;;;7.93;2.00;;;3.70;99.90;;;2.59;100.00;101191.47;4180716;28;20076;-78
2023/02/26 01:30:09;;;;;;;11.85;3.38;;;3.60;99.90;;;2.65;100.00;101201.53;4167570;28;20413;-78
2023/02/26 01:32:43;;;;;;;13.93;3.38;;;3.60;99.90;;;2.70;100.00;101203.81;4167747;28;20065;-78
2023/02/26 01:34:56;;;;;;;8.95;2.97;;;3.60;99.90;;;2.78;100.00;101196.38;4169005;28;20017;-78
2023/02/26 01:37:46;;;;;;;11.98;3.03;;;3.60;99.90;;;2.68;100.00;101200.50;4176431;28;20032;-78
2023/02/26 01:40:22;;;;;;;10.63;3.08;;;3.60;99.90;;;2.60;100.00;101194.91;4101388;28;20518;-78
2023/02/26 01:42:29;;;;;;;13.82;3.15;;;3.60;99.90;;;2.66;100.00;101197.97;4165678;28;20037;-78
2023/02/26 01:44:41;;;;;;;8.50;2.67;;;3.60;99.90;;;2.55;100.00;101208.22;4167380;28;20036;-78
2023/02/26 01:47:09;;;;;;;10.85;3.10;;;3.60;99.90;;;2.54;100.00;101197.91;4174138;28;20029;-78
2023/02/26 01:49:15;;;;;;;13.77;3.15;;;3.50;99.90;;;2.44;100.00;101187.22;4168927;28;20029;-78
2023/02/26 01:51:17;;;;;;;9.55;2.83;;;3.50;99.90;;;2.43;100.00;101200.31;4168809;28;20401;-78
2023/02/26 01:53:26;;;;;;;10.13;3.30;;;3.40;99.90;;;2.35;100.00;101207.75;4168580;28;20488;-78
2023/02/26 01:55:28;;;;;;;12.35;3.15;;;3.40;99.90;;;2.33;100.00;101200.00;4166331;28;20115;-78
2023/02/26 01:57:29;;;;;;;9.05;3.20;;;3.30;99.90;;;2.34;100.00;101200.84;4171015;28;20455;-78
2023/02/26 01:59:33;;;;;;;7.32;3.00;;;3.30;99.90;;;2.31;100.00;101212.28;4167262;28;20030;-78
2023/02/26 02:01:37;;;;;;;8.57;2.75;;;3.30;99.90;;;2.30;100.00;101205.41;4167392;28;20393;-78
2023/02/26 02:03:41;;;;;;;12.52;3.78;;;3.30;99.90;;;2.26;100.00;101203.94;4166198;28;20049;-78
2023/02/26 02:05:50;;;;;;;5.63;2.50;;;3.30;99.90;;;2.37;100.00;101222.34;4167655;28;20028;-78
2023/02/26 02:07:51;;;;;;;9.73;2.60;;;3.30;99.90;;;2.28;100.00;101214.25;4172615;28;20032;-78
2023/02/26 02:09:52;;;;;;;11.80;3.10;;;3.30;99.90;;;2.26;100.00;101208.28;4167092;28;20468;-78
2023/02/26 02:12:23;;;;;;;8.65;2.88;;;3.30;99.90;;;2.24;100.00;101204.00;4168632;28;20482;-78
2023/02/26 02:15:08;;;;;;;6.32;2.90;;;3.30;99.90;;;2.16;100.00;101206.25;4168378;28;20033;-78
2023/02/26 02:18:00;;;;;;;7.65;2.78;;;3.20;99.90;;;2.18;100.00;101206.97;4170933;28;20120;-78
2023/02/26 02:20:36;;;;;;;6.85;2.88;;;3.20;99.90;;;2.18;100.00;101201.78;4171133;28;20025;-78
2023/02/26 02:23:24;;;;;;;11.18;3.03;;;3.20;99.90;;;2.05;100.00;101203.44;4185054;28;20018;-78
2023/02/26 02:26:06;;;;;;;11.48;3.38;;;3.10;99.90;;;2.10;100.00;101203.16;4183589;28;20037;-78
2023/02/26 02:28:57;;;;;;;7.50;3.38;;;3.10;99.90;;;1.89;100.00;101187.06;4168480;28;20119;-77
2023/02/26 02:31:35;;;;;;;8.18;2.63;;;3.10;99.90;;;1.96;100.00;101204.00;4161247;28;20064;-77
2023/02/26 02:33:59;;;;;;;11.18;3.47;;;3.00;99.90;;;2.05;100.00;101216.47;4161886;28;20045;-77
2023/02/26 02:36:14;;;;;;;13.23;3.22;;;3.00;99.90;;;1.86;100.00;101204.59;4183543;28;20029;-77
2023/02/26 02:38:22;;;;;;;5.88;2.90;;;3.00;99.90;;;1.82;100.00;101201.38;4178113;28;20036;-77
2023/02/26 02:40:31;;;;;;;6.20;2.88;;;2.90;99.90;;;1.83;100.00;101210.81;4186769;28;20025;-77
2023/02/26 02:42:50;;;;;;;8.55;4.30;;;2.90;99.90;;;1.76;100.00;101206.91;4186747;28;20025;-77
2023/02/26 02:45:06;;;;;;;12.95;3.20;;;2.80;99.90;;;1.76;100.00;101204.31;4186682;28;20024;-78
2023/02/26 02:47:10;;;;;;;13.80;3.58;;;2.80;99.90;;;1.68;100.00;101202.13;4177702;28;20165;-77
2023/02/26 02:49:37;;;;;;;7.78;3.08;;;2.80;99.90;;;1.67;100.00;101210.03;4170188;28;20041;-77
2023/02/26 02:51:55;;;;;;;12.25;4.20;;;2.70;99.90;;;1.60;100.00;101204.34;4140155;28;20041;-78
2023/02/26 02:54:23;;;;;;;13.18;3.65;;;2.70;99.90;;;1.63;100.00;101209.38;4172529;28;20025;-77
2023/02/26 02:56:46;;;;;;;9.55;3.33;;;2.70;99.90;;;1.66;100.00;101213.56;4183464;28;20032;-77
2023/02/26 02:59:04;;;;;;;9.82;3.95;;;2.70;99.90;;;1.75;100.00;101207.84;4154132;28;20048;-77
2023/02/26 03:01:11;;;;;;;9.27;2.55;;;2.70;99.90;;;1.74;100.00;101220.91;4185036;28;20029;-78
2023/02/26 03:03:43;;;;;;;11.57;3.25;;;2.80;99.90;;;1.66;100.00;101221.38;4169965;28;20026;-78
2023/02/26 03:05:44;;;;;;;11.00;3.00;;;2.70;99.90;;;1.65;100.00;101227.47;4161999;28;20040;-78
2023/02/26 03:07:54;;;;;;;8.43;3.60;;;2.70;99.90;;;1.56;100.00;101223.63;4172473;28;20567;-78
2023/02/26 03:09:55;;;;;;;10.85;3.15;;;2.60;99.90;;;1.64;100.00;101225.81;4169740;28;20533;-77
2023/02/26 03:11:56;;;;;;;10.55;3.63;;;2.60;99.90;;;1.72;100.00;101236.63;4171283;28;20060;-78
2023/02/26 03:13:58;;;;;;;11.55;3.50;;;2.70;99.90;;;1.61;100.00;101233.78;4169573;28;20033;-78
2023/02/26 03:16:37;;;;;;;12.45;3.33;;;2.70;99.90;;;1.60;100.00;101235.56;4169868;28;20393;-77
2023/02/26 03:19:20;;;;;;;9.43;2.95;;;2.70;99.90;;;1.56;100.00;101243.59;4153484;28;20071;-77
2023/02/26 03:21:29;;;;;;;9.70;3.28;;;2.60;99.90;;;1.52;100.00;101239.50;4182190;28;20451;-77
2023/02/26 03:23:45;;;;;;;8.82;3.70;;;2.60;99.90;;;1.41;100.00;101239.25;4181967;28;20033;-77
2023/02/26 03:26:14;;;;;;;8.15;2.97;;;2.50;99.90;;;1.38;100.00;101239.44;4178152;28;20381;-77
2023/02/26 03:28:28;;;;;;;21.95;5.28;;;2.50;99.90;;;1.39;100.00;101243.72;4173947;28;20037;-77
2023/02/26 03:30:47;;;;;;;9.68;3.60;;;2.40;99.90;;;1.42;100.00;101235.75;4185631;28;20037;-77
2023/02/26 03:33:12;;;;;;;9.63;3.25;;;2.40;99.90;;;1.36;100.00;101246.47;4183640;28;20041;-77
2023/02/26 03:36:05;;;;;;;8.93;2.92;;;2.40;99.90;;;1.25;100.00;101249.69;4185174;28;20538;-77
2023/02/26 03:38:13;;;;;;;8.45;3.40;;;2.30;99.90;;;1.20;100.00;101246.47;4166837;28;20033;-77
2023/02/26 03:40:50;;;;;;;13.02;3.60;;;2.30;99.90;;;1.25;100.00;101251.44;4169230;28;20044;-77
2023/02/26 03:43:21;;;;;;;9.57;3.65;;;2.30;99.90;;;1.31;100.00;101259.75;4169519;28;20083;-77
2023/02/26 03:45:32;;;;;;;7.68;3.60;;;2.30;99.90;;;1.27;100.00;101237.44;4153001;28;20029;-77
2023/02/26 03:47:34;;;;;;;5.60;3.10;;;2.30;99.90;;;1.23;100.00;101242.88;4177909;28;20029;-77
2023/02/26 03:49:54;;;;;;;8.18;2.90;;;2.30;99.90;;;1.23;100.00;101238.53;4169286;28;20025;-77
2023/02/26 03:51:57;;;;;;;14.70;3.70;;;2.30;99.90;;;1.18;100.00;101237.94;4170549;28;20026;-77
2023/02/26 03:54:33;;;;;;;7.70;3.83;;;2.30;99.90;;;1.25;100.00;101238.44;4173040;28;20272;-77
2023/02/26 03:56:41;;;;;;;13.63;3.60;;;2.20;99.90;;;1.19;100.00;101238.78;4182067;28;20029;-77
2023/02/26 03:58:43;;;;;;;10.88;3.38;;;2.20;99.90;;;1.26;100.00;101240.94;4152615;28;20029;-77
2023/02/26 04:00:49;;;;;;;7.13;2.67;;;2.20;99.90;;;1.17;100.00;101235.41;4168838;28;20029;-77
2023/02/26 04:03:21;;;;;;;11.32;3.03;;;2.20;99.90;;;1.18;100.00;101244.91;4169151;28;20160;-77
2023/02/26 04:05:32;;;;;;;11.10;3.15;;;2.20;99.90;;;1.12;100.00;101259.06;4173565;28;20033;-77
2023/02/26 04:07:33;;;;;;;10.10;3.55;;;2.20;99.90;;;1.16;100.00;101250.19;4174318;28;20032;-77
2023/02/26 04:09:34;;;;;;;7.10;2.75;;;2.20;99.90;;;1.07;100.00;101255.88;4168946;28;20508;-77
2023/02/26 04:11:36;;;;;;;11.00;3.58;;;2.20;99.90;;;1.07;100.00;101253.28;4168808;28;20037;-77
2023/02/26 04:13:37;;;;;;;11.85;3.85;;;2.10;99.90;;;1.07;100.00;101259.31;4152264;28;20030;-77
2023/02/26 04:15:38;;;;;;;9.63;2.95;;;2.10;99.90;;;1.24;100.00;101267.94;4152051;28;20061;-77
2023/02/26 04:17:39;;;;;;;10.32;2.90;;;2.20;99.90;;;1.17;100.00;101264.00;4164132;28;20049;-77
2023/02/26 04:19:40;;;;;;;8.98;3.28;;;2.20;99.90;;;1.13;100.00;101268.53;4186392;28;20029;-77
2023/02/26 04:21:41;;;;;;;8.00;2.78;;;2.20;99.90;;;1.04;100.00;101261.25;4186776;28;20021;-77
2023/02/26 04:23:42;;;;;;;12.88;2.97;;;2.10;99.90;;;1.02;100.00;101265.66;4185260;28;20029;-77
2023/02/26 04:25:43;;;;;;;6.65;2.63;;;2.10;99.90;;;1.02;100.00;101274.31;4185181;28;20524;-78
2023/02/26 04:27:43;;;;;;;9.30;2.63;;;2.10;99.90;;;1.02;100.00;101276.06;4173700;28;20063;-77
2023/02/26 04:29:44;;;;;;;7.82;4.22;;;2.10;99.90;;;1.05;100.00;101273.28;4169691;28;20025;-78
2023/02/26 04:31:45;;;;;;;9.77;3.20;;;2.10;99.90;;;1.07;100.00;101281.88;4185269;28;20029;-78
2023/02/26 04:33:46;;;;;;;12.70;3.22;;;2.10;99.90;;;1.06;100.00;101287.97;4170005;28;20038;-78
2023/02/26 04:35:48;;;;;;;4.18;2.42;;;2.10;99.90;;;1.03;100.00;101283.78;4168270;28;20049;-77
2023/02/26 04:37:49;;;;;;;7.35;3.33;;;2.10;99.90;;;1.01;100.00;101288.22;4178711;28;20057;-78
2023/02/26 04:39:50;;;;;;;9.98;2.80;;;2.00;99.90;;;1.02;100.00;101289.88;4168501;28;20083;-77
2023/02/26 04:41:51;;;;;;;11.52;3.15;;;2.00;99.90;;;1.04;100.00;101290.66;4169745;28;20100;-77
2023/02/26 04:43:52;;;;;;;15.50;2.88;;;2.10;99.90;;;0.97;100.00;101281.50;4169239;28;20499;-77
2023/02/26 04:45:53;;;;;;;7.97;2.22;;;2.00;99.90;;;1.00;100.00;101296.09;4168441;28;20025;-77
2023/02/26 04:47:53;;;;;;;7.65;2.47;;;2.00;99.90;;;0.99;100.00;101299.59;4175664;28;20083;-77
2023/02/26 04:49:54;;;;;;;9.80;3.38;;;2.00;99.90;;;1.02;100.00;101308.06;4169465;28;20485;-77
2023/02/26 04:51:55;;;;;;;8.05;2.28;;;2.00;99.90;;;1.01;100.00;101302.97;4168169;28;20025;-77
2023/02/26 04:53:56;;;;;;;6.05;2.53;;;2.00;99.90;;;0.91;100.00;101302.63;4172100;28;20069;-77
2023/02/26 04:55:57;;;;;;;8.10;2.38;;;2.00;99.90;;;0.87;100.00;101308.88;4185895;28;20021;-77
2023/02/26 04:57:58;;;;;;;7.60;2.63;;;1.90;99.90;;;0.87;100.00;101311.47;4171732;28;20037;-77
2023/02/26 04:59:59;;;;;;;6.70;3.00;;;2.00;99.90;;;0.82;100.00;101317.84;4168544;28;20029;-77
2023/02/26 05:02:00;;;;;;;9.80;2.60;;;1.90;99.90;;;0.81;100.00;101319.59;4167788;28;20026;-77
2023/02/26 05:04:01;;;;;;;16.85;3.20;;;1.80;99.90;;;0.85;100.00;101317.66;4169275;28;20110;-77
2023/02/26 05:06:02;;;;;;;6.75;3.05;;;1.90;99.90;;;0.77;100.00;101314.66;4169187;28;20040;-77
2023/02/26 05:08:03;;;;;;;6.88;2.50;;;1.80;99.90;;;0.86;100.00;101320.22;4170446;28;20049;-77
2023/02/26 05:10:06;;;;;;;5.80;2.63;;;1.80;99.90;;;0.78;100.00;101322.34;4169077;28;20032;-77
2023/02/26 05:12:06;;;;;;;6.20;2.47;;;1.80;99.90;;;0.74;100.00;101332.97;4169386;28;20093;-77
2023/02/26 05:14:07;;;;;;;10.73;3.33;;;1.80;99.90;;;0.73;100.00;101315.72;4167631;28;20096;-77
2023/02/26 05:16:09;;;;;;;18.23;4.22;;;1.80;99.90;;;0.73;100.00;101334.72;4168103;28;20503;-78
2023/02/26 05:18:10;;;;;;;12.98;3.25;;;1.80;99.90;;;0.75;100.00;101332.88;4167659;28;20080;-77
2023/02/26 05:20:11;;;;;;;9.82;3.50;;;1.80;99.90;;;0.70;100.00;101340.09;4171539;28;20028;-77
2023/02/26 05:22:12;;;;;;;8.88;2.85;;;1.80;99.90;;;0.79;100.00;101347.41;4167862;28;20025;-77
2023/02/26 05:24:14;;;;;;;7.70;2.90;;;1.80;99.90;;;0.73;100.00;101345.13;4168879;28;20026;-77
2023/02/26 05:26:15;;;;;;;12.05;3.40;;;1.80;99.90;;;0.73;99.79;101346.88;4167475;28;20132;-77
2023/02/26 05:28:16;;;;;;;10.40;2.85;;;1.70;99.90;;;0.71;99.79;101351.31;4179300;28;20528;-77
2023/02/26 05:30:17;;;;;;;9.80;3.58;;;1.70;99.90;;;0.71;100.00;101352.16;4167381;28;20529;-77
2023/02/26 05:32:18;;;;;;;10.40;3.92;;;1.70;99.90;;;0.66;99.93;101353.31;4168141;28;20480;-77
2023/02/26 05:34:19;;;;;;;11.23;2.90;;;1.70;99.90;;;0.60;99.64;101349.25;4169955;28;20025;-77
2023/02/26 05:36:20;;;;;;;6.85;2.58;;;1.70;99.90;;;0.56;99.87;101352.94;4168079;28;20113;-77
2023/02/26 05:38:21;;;;;;;7.57;2.58;;;1.70;99.90;;;0.58;99.74;101340.72;4167636;28;20087;-77
2023/02/26 05:40:23;;;;;;;6.43;3.33;;;1.70;99.90;;;0.57;100.00;101353.78;4179269;28;20032;-77
2023/02/26 05:42:24;;;;;;;12.10;2.60;;;1.60;99.90;;;0.51;99.83;101357.50;4183941;28;20029;-77
2023/02/26 05:44:25;;;;;;;10.88;2.35;;;1.60;99.90;;;0.55;99.40;101352.09;4183471;28;20032;-77
2023/02/26 05:46:26;;;;;;;11.60;3.03;;;1.60;99.90;;;0.67;98.71;101350.63;4183490;28;20025;-77
2023/02/26 05:48:27;;;;;;;7.25;2.45;;;1.60;99.90;;;0.57;98.68;101365.81;4168721;28;20030;-77
2023/02/26 05:50:29;;;;;;;9.43;2.65;;;1.60;99.90;;;0.47;98.72;101362.03;4167372;28;20025;-77
2023/02/26 05:52:30;;;;;;;6.97;2.47;;;1.60;99.90;;;0.53;98.92;101369.50;4183895;28;20482;-77
2023/02/26 05:54:31;;;;;;;7.40;2.42;;;1.60;99.90;;;0.45;98.93;101370.78;4176000;28;20037;-77
2023/02/26 05:56:32;;;;;;;12.77;2.92;;;1.50;99.90;;;0.47;98.60;101384.53;4182526;28;20112;-77
2023/02/26 05:58:33;;;;;;;8.90;2.75;;;1.60;99.90;;;0.41;98.88;101379.66;4168509;28;20030;-77
2023/02/26 06:00:34;;;;;;;6.57;2.85;;;1.50;99.90;;;0.40;99.01;101389.19;4167334;28;20026;-77
2023/02/26 06:02:35;;;;;;;8.60;2.65;;;1.50;99.90;;;0.45;98.62;101391.53;4167469;28;20033;-77
2023/02/26 06:04:36;;;;;;;7.55;2.35;;;1.50;99.90;;;0.41;98.78;101384.84;4167477;28;20509;-77
2023/02/26 06:06:37;;;;;;;14.68;3.10;;;1.50;99.90;;;0.32;98.99;101393.06;4170446;28;20039;-77
2023/02/26 06:08:38;;;;;;;11.90;3.60;;;1.40;99.90;;;0.32;98.91;101398.25;4184092;28;20033;-77
2023/02/26 06:10:38;;;;;;;8.63;2.60;;;1.40;99.90;;;0.16;99.02;101392.13;4183771;28;20037;-77
2023/02/26 06:12:40;;;;;;;6.25;2.67;;;1.40;99.90;;;0.31;99.35;101406.94;4186467;28;20048;-77
2023/02/26 06:14:41;;;;;;;10.00;3.17;;;1.30;99.90;;;0.23;99.16;101407.34;4186934;28;20025;-77
2023/02/26 06:16:41;;;;;;;11.50;2.53;;;1.30;99.90;;;0.18;99.59;101404.09;4184978;28;20032;-77
2023/02/26 06:18:42;;;;;;;6.57;2.58;;;1.30;99.90;;;0.07;99.55;101408.97;4170661;28;20084;-77
2023/02/26 06:20:43;;;;;;;12.43;2.47;;;1.20;99.90;;;0.04;99.84;101422.09;4171944;28;20032;-77
2023/02/26 06:22:44;;;;;;;7.95;2.80;;;1.20;99.90;;;0.02;99.97;101420.47;4171881;28;20551;-77
2023/02/26 06:24:45;;;;;;;14.27;3.03;;;1.10;99.90;;;0.00;99.86;101412.78;4170546;28;20065;-77
2023/02/26 06:26:46;;;;;;;7.78;2.80;;;1.10;99.90;;;-0.05;100.00;101415.59;4172856;28;20049;-77
2023/02/26 06:28:47;;;;;;;10.32;2.92;;;1.00;99.90;;;-0.14;100.00;101425.53;4177559;28;20033;-77
2023/02/26 06:30:47;;;;;;;8.15;2.90;;;1.00;99.90;;;-0.12;100.00;101428.94;4170257;28;20048;-77
2023/02/26 06:32:48;;;;;;;9.18;2.50;;;1.00;99.90;;;-0.15;100.00;101419.50;4171618;28;20037;-77
2023/02/26 06:34:49;;;;;;;9.05;2.88;;;1.00;99.90;;;-0.17;100.00;101425.69;4171530;28;20053;-77
2023/02/26 06:36:50;;;;;;;7.65;2.40;;;0.90;99.90;;;-0.26;100.00;101434.72;4173540;28;20021;-77
2023/02/26 06:38:51;;;;;;;6.65;2.70;;;0.90;99.90;;;-0.29;100.00;101446.97;4174777;28;20025;-77
2023/02/26 06:40:52;;;;;;;7.88;2.60;;;0.90;99.90;;;-0.27;100.00;101440.81;4171352;28;20029;-77
2023/02/26 06:42:53;;;;;;;6.88;2.17;;;0.80;99.90;;;-0.29;100.00;101449.56;4171385;28;20036;-77
2023/02/26 06:44:55;;;;;;;7.35;2.53;;;0.80;99.90;;;-0.34;100.00;101452.41;4170009;28;20025;-77
2023/02/26 06:46:56;;;;;;;11.05;2.60;;;0.80;99.90;;;-0.23;100.00;101455.31;4157612;28;20532;-77
2023/02/26 06:48:57;;;;;;;9.68;2.80;;;0.80;99.90;;;-0.30;100.00;101459.09;4171224;28;20025;-77
2023/02/26 06:50:58;;;;;;;7.70;2.38;;;0.80;99.90;;;-0.37;100.00;101465.50;4170361;28;20041;-77
2023/02/26 06:52:59;;;;;;;11.88;3.28;;;0.80;99.90;;;-0.39;100.00;101464.72;4171405;28;20029;-77
2023/02/26 06:55:00;;;;;;;8.68;2.50;;;0.80;99.90;;;-0.39;100.00;101464.72;4182581;28;20044;-77
2023/02/26 06:57:02;;;;;;;8.32;2.55;;;0.70;99.90;;;-0.46;100.00;101471.09;4176520;28;20053;-77
2023/02/26 06:59:03;;;;;;;6.15;2.47;;;0.70;99.90;;;-0.46;100.00;101470.25;4169811;28;20021;-77
2023/02/26 07:01:04;;;;;;;7.93;2.70;;;0.60;99.90;;;-0.49;100.00;101478.16;4170024;28;20444;-77
2023/02/26 07:03:05;;;;;;;3.80;2.20;;;0.60;99.90;;;-0.37;100.00;101482.78;4186318;28;20102;-77
2023/02/26 07:05:06;;;;;;;9.68;2.53;;;0.70;99.90;;;-0.44;100.00;101482.22;4171009;28;20403;-77
2023/02/26 07:07:07;;;;;;;9.40;2.60;;;0.60;99.90;;;-0.42;100.00;101476.97;4192398;28;20096;-77
2023/02/26 07:09:08;;;;;;;5.70;2.38;;;0.70;99.90;;;-0.45;100.00;101482.28;4170144;28;20425;-77
2023/02/26 07:11:09;;;;;;;5.13;2.42;;;0.60;99.90;;;-0.35;100.00;101492.16;4170135;28;20033;-77
2023/02/26 07:13:10;;;;;;;12.57;3.75;;;0.70;99.90;;;-0.39;100.00;101501.00;4169602;28;20397;-77
2023/02/26 07:15:11;;;;;;;5.97;2.22;;;0.70;99.90;;;-0.40;100.00;101499.31;4170708;28;20033;-77
2023/02/26 07:17:19;;;;;;;9.45;2.88;;;0.70;99.90;;;-0.39;100.00;101490.66;4173263;28;20478;-77
2023/02/26 07:19:20;;;;;;;9.45;2.47;;;0.70;99.90;;;-0.32;100.00;101492.03;4172103;28;20049;-77
2023/02/26 07:21:21;;;;;;;9.30;2.50;;;0.70;99.90;;;-0.37;100.00;101496.59;4170704;28;20044;-77
2023/02/26 07:23:22;;;;;;;5.07;2.10;;;0.70;99.90;;;-0.38;100.00;101507.84;4185502;28;20036;-77
2023/02/26 07:25:24;;;;;;;7.00;2.80;;;0.70;99.90;;;-0.41;100.00;101508.00;4170834;28;20021;-77
2023/02/26 07:27:25;;;;;;;7.05;2.60;;;0.70;99.90;;;-0.35;100.00;101512.91;4172889;28;20037;-77
2023/02/26 07:29:26;;;;;;;7.03;2.28;;;0.70;99.90;;;-0.43;100.00;101529.72;4169433;28;20026;-77
2023/02/26 07:31:27;;;;;;;10.05;2.55;;;0.70;99.90;;;-0.40;100.00;101529.56;4174127;28;20036;-77
2023/02/26 07:33:27;;;;;;;5.03;2.10;;;0.70;99.90;;;-0.38;100.00;101538.97;4178053;28;20492;-77
2023/02/26 07:35:28;;;;;;;10.05;2.13;;;0.70;99.90;;;-0.39;100.00;101532.13;4170727;28;20116;-77
2023/02/26 07:37:29;;;;;;;6.93;2.63;;;0.70;99.90;;;-0.37;99.99;101539.81;4182452;28;20053;-77
2023/02/26 07:39:30;;;;;;;6.00;2.90;;;0.70;99.90;;;-0.32;100.00;101536.09;4169512;28;20053;-77
2023/02/26 07:41:31;;;;;;;6.85;2.35;;;0.80;99.90;;;-0.37;99.73;101535.47;4169594;28;20520;-77
2023/02/26 07:43:32;;;;;;;6.85;2.30;;;0.80;99.90;;;-0.28;99.16;101545.44;4152841;28;20406;-77
2023/02/26 07:45:33;;;;;;;7.88;3.38;;;0.80;99.90;;;-0.22;98.74;101539.13;4168827;28;20022;-77
2023/02/26 07:47:34;;;;;;;5.50;2.47;;;0.90;99.90;;;-0.17;98.27;101543.19;4185788;28;20033;-77
2023/02/26 07:49:35;;;;;;;5.80;1.95;;;0.90;99.90;;;-0.10;97.84;101534.25;4169040;28;20021;-77
2023/02/26 07:51:37;;;;;;;11.77;2.80;;;1.00;99.90;;;-0.06;97.08;101540.16;4176538;28;20029;-77
2023/02/26 07:53:38;;;;;;;6.63;2.45;;;1.00;99.90;;;-0.06;96.71;101535.78;4170217;28;20017;-77
2023/02/26 07:55:38;;;;;;;7.55;2.15;;;1.00;99.90;;;-0.04;96.69;101540.91;4185501;28;20028;-77
2023/02/26 07:57:39;;;;;;;5.53;2.17;;;1.10;99.90;;;0.12;95.61;101543.66;4171353;28;20091;-77
2023/02/26 07:59:40;;;;;;;8.77;2.05;;;1.10;99.90;;;0.11;95.02;101545.41;4169928;28;20057;-77
2023/02/26 08:01:41;;;;;;;7.15;2.55;;;1.20;99.90;;;0.16;94.62;101546.03;4168920;28;20026;-77
2023/02/26 08:03:42;;;;;;;8.52;2.38;;;1.20;99.90;;;0.23;93.72;101556.97;4168933;28;20073;-77
2023/02/26 08:05:43;;;;;;;6.95;2.53;;;1.30;99.90;;;0.28;92.80;101544.63;4170344;28;20029;-78
2023/02/26 08:07:44;;;;;;;5.18;2.15;;;1.40;99.90;;;0.33;92.11;101559.06;4162297;28;20493;-78
2023/02/26 08:09:45;;;;;;;6.78;2.38;;;1.40;99.90;;;0.31;91.50;101567.81;4181407;28;20029;-78
2023/02/26 08:11:46;;;;;;;5.97;2.25;;;1.40;99.90;;;0.39;91.07;101561.38;4185296;28;20527;-78
2023/02/26 08:13:47;;;;;;;8.07;2.50;;;1.50;99.90;;;0.45;90.80;101573.22;4186417;28;20025;-77
2023/02/26 08:15:48;;;;;;;3.97;2.20;;;1.50;99.90;;;0.48;90.34;101573.06;4186589;28;20037;-78
2023/02/26 08:17:52;;;;;;;7.75;2.30;;;1.60;99.90;;;0.54;90.55;101583.16;4169893;28;20171;-78
2023/02/26 08:19:53;;;;;;;5.85;2.35;;;1.60;99.90;;;0.56;90.06;101576.16;4168083;28;20029;-78
2023/02/26 08:21:54;;;;;;;7.85;2.08;;;1.60;99.90;;;0.59;89.89;101576.03;4179786;28;20021;-78
2023/02/26 08:23:55;;;;;;;9.27;2.03;;;1.70;99.90;;;0.77;88.64;101585.53;4168542;28;20040;-78
2023/02/26 08:26:14;;;;;;;6.53;1.65;;;1.80;99.90;;;0.75;88.43;101582.16;4185017;28;20077;-78
2023/02/26 08:28:15;;;;;;;6.65;2.15;;;1.80;99.90;;;0.81;88.03;101570.63;4173080;28;20392;-78
2023/02/26 08:30:16;;;;;;;5.18;2.03;;;1.90;99.90;;;0.91;87.34;101582.25;4184913;28;20029;-77
2023/02/26 08:32:18;;;;;;;9.35;2.63;;;1.90;99.90;;;0.97;86.96;101587.16;4173419;28;20655;-77
2023/02/26 08:34:19;;;;;;;8.57;1.73;;;2.00;99.90;;;0.99;86.68;101570.59;4167490;28;20107;-77
2023/02/26 08:36:20;;;;;;;4.35;1.77;;;2.00;99.90;;;1.02;86.51;101570.44;4171119;28;20077;-77
2023/02/26 08:38:21;;;;;;;6.50;2.22;;;2.10;99.90;;;1.08;86.22;101580.53;4177408;28;20017;-77
2023/02/26 08:40:22;;;;;;;8.85;1.92;;;2.20;99.90;;;1.28;85.70;101592.56;4168313;28;20528;-78
2023/02/26 08:42:23;;;;;;;6.88;1.70;;;2.20;99.90;;;1.33;85.77;101593.16;4168252;28;20036;-78
2023/02/26 08:44:24;;;;;;;5.90;1.80;;;2.30;99.90;;;1.38;84.71;101590.31;4168304;28;20044;-78
2023/02/26 08:46:25;;;;;;;7.55;1.40;;;2.40;99.90;;;1.44;84.43;101596.06;4171374;28;20025;-78
2023/02/26 08:48:26;;;;;;;5.13;1.70;;;2.40;99.90;;;1.49;83.67;101604.44;4174120;28;20041;-79
2023/02/26 08:50:27;;;;;;;5.03;1.90;;;2.50;99.90;;;1.60;82.92;101606.53;4169532;28;20033;-79
2023/02/26 08:52:28;;;;;;;4.57;1.85;;;2.60;99.90;;;1.62;82.49;101622.88;4168477;28;20489;-79